createdAt,value
2023-01-23T00:00:57.069Z,28.3220
2023-01-23T00:01:59.452Z,28.3950
2023-01-23T00:03:01.816Z,28.3830
2023-01-23T00:04:04.299Z,28.3690
2023-01-23T00:05:04.346Z,28.3410
2023-01-23T00:06:06.680Z,28.3390
2023-01-23T00:07:09.017Z,28.3350
2023-01-23T00:08:11.327Z,28.3460
2023-01-23T00:09:13.652Z,28.3410
2023-01-23T00:10:13.809Z,28.3570
2023-01-23T00:11:16.109Z,28.3510
2023-01-23T00:12:18.468Z,28.3350
2023-01-23T00:13:20.781Z,28.3720
2023-01-23T00:14:23.055Z,28.3660
2023-01-23T00:15:25.395Z,28.4180
2023-01-23T00:16:25.597Z,28.3910
2023-01-23T00:17:27.936Z,28.3850
2023-01-23T00:18:30.328Z,28.3660
2023-01-23T00:19:32.754Z,28.3660
2023-01-23T00:20:34.999Z,28.3660
2023-01-23T00:21:35.197Z,28.3340
2023-01-23T00:22:37.574Z,28.2960
2023-01-23T00:23:39.925Z,28.3190
2023-01-23T00:24:42.255Z,28.3220
2023-01-23T00:25:42.429Z,28.3280
2023-01-23T00:26:44.768Z,28.3080
2023-01-23T00:27:47.092Z,28.2630
2023-01-23T00:28:49.472Z,28.2800
2023-01-23T00:29:51.772Z,28.2740
2023-01-23T00:30:54.248Z,28.2800
2023-01-23T00:31:54.344Z,28.3220
2023-01-23T00:32:56.631Z,28.3650
2023-01-23T00:33:58.985Z,28.3080
2023-01-23T00:35:01.423Z,28.2960
2023-01-23T00:36:03.609Z,28.2780
2023-01-23T00:37:03.768Z,28.2690
2023-01-23T00:38:06.184Z,28.2690
2023-01-23T00:39:08.541Z,28.2430
2023-01-23T00:40:10.805Z,28.2240
2023-01-23T00:41:13.141Z,28.2540
2023-01-23T00:42:13.299Z,28.2320
2023-01-23T00:43:15.576Z,28.2130
2023-01-23T00:44:17.924Z,28.2340
2023-01-23T00:45:20.190Z,28.2670
2023-01-23T00:46:22.612Z,28.2960
2023-01-23T00:47:24.913Z,28.3190
2023-01-23T00:48:25.122Z,28.3550
2023-01-23T00:49:27.572Z,28.3870
2023-01-23T00:50:30.016Z,28.3190
2023-01-23T00:51:32.299Z,28.2840
2023-01-23T00:52:34.671Z,28.3460
2023-01-23T00:53:34.927Z,28.3190
2023-01-23T00:54:37.360Z,28.2960
2023-01-23T00:55:39.745Z,28.3050
2023-01-23T00:56:42.143Z,28.2580
2023-01-23T00:57:42.382Z,28.2450
2023-01-23T00:58:45.317Z,28.2420
2023-01-23T00:59:47.179Z,28.2690
2023-01-23T01:00:47.366Z,28.2850
2023-01-23T01:01:49.889Z,28.2800
2023-01-23T01:02:52.316Z,28.2580
2023-01-23T01:03:54.480Z,28.2690
2023-01-23T01:05:35.884Z,28.3210
2023-01-23T01:06:37.850Z,28.2740
2023-01-23T01:07:40.131Z,28.2890
2023-01-23T01:08:42.475Z,28.2450
2023-01-23T01:09:42.670Z,28.2070
2023-01-23T01:10:45.076Z,28.2010
2023-01-23T01:11:47.394Z,28.2340
2023-01-23T01:12:49.762Z,28.2910
2023-01-23T01:13:49.997Z,28.2940
2023-01-23T01:14:52.394Z,28.2780
2023-01-23T01:15:54.837Z,28.2630
2023-01-23T01:16:57.158Z,28.2690
2023-01-23T01:17:59.512Z,28.2580
2023-01-23T01:18:59.713Z,28.2360
2023-01-23T01:20:02.078Z,28.2470
2023-01-23T01:21:04.613Z,28.2420
2023-01-23T01:22:06.839Z,28.2360
2023-01-23T01:23:07.081Z,28.2300
2023-01-23T01:24:09.486Z,28.2690
2023-01-23T01:25:11.893Z,28.2240
2023-01-23T01:26:14.236Z,28.2300
2023-01-23T01:27:16.531Z,28.2130
2023-01-23T01:28:16.715Z,28.2120
2023-01-23T01:29:19.125Z,28.2300
2023-01-23T01:30:21.876Z,28.2190
2023-01-23T01:31:24.100Z,28.2130
2023-01-23T01:32:24.160Z,28.2030
2023-01-23T01:33:26.546Z,28.2190
2023-01-23T01:34:28.905Z,28.2190
2023-01-23T01:35:31.297Z,28.2080
2023-01-23T01:36:33.801Z,28.2300
2023-01-23T01:37:33.884Z,28.2080
2023-01-23T01:38:36.259Z,28.1920
2023-01-23T01:39:38.669Z,28.1860
2023-01-23T01:40:41.042Z,28.2300
2023-01-23T01:41:41.305Z,28.2080
2023-01-23T01:42:43.660Z,28.2130
2023-01-23T01:43:46.022Z,28.2170
2023-01-23T01:44:46.245Z,28.2220
2023-01-23T01:45:48.629Z,28.2700
2023-01-23T01:46:51.056Z,28.2980
2023-01-23T01:47:53.321Z,28.2920
2023-01-23T01:48:55.702Z,28.2880
2023-01-23T01:49:55.953Z,28.2940
2023-01-23T01:50:58.418Z,28.2960
2023-01-23T01:52:00.885Z,28.2800
2023-01-23T01:53:03.103Z,28.3280
2023-01-23T01:54:03.346Z,28.2880
2023-01-23T01:55:05.730Z,28.2720
2023-01-23T01:56:08.146Z,28.3410
2023-01-23T01:57:10.617Z,28.3410
2023-01-23T01:58:12.867Z,28.2880
2023-01-23T01:59:13.095Z,28.2850
2023-01-23T02:00:15.453Z,28.2830
2023-01-23T02:01:17.773Z,28.2690
2023-01-23T02:02:20.248Z,28.2420
2023-01-23T02:03:22.468Z,28.2420
2023-01-23T02:04:22.684Z,28.2630
2023-01-23T02:05:25.033Z,28.2630
2023-01-23T02:06:27.413Z,28.2780
2023-01-23T02:07:29.997Z,28.3150
2023-01-23T02:08:29.968Z,28.3360
2023-01-23T02:09:32.322Z,28.3360
2023-01-23T02:10:34.676Z,28.3200
2023-01-23T02:11:36.988Z,28.3250
2023-01-23T02:12:39.374Z,28.3200
2023-01-23T02:13:39.577Z,28.3300
2023-01-23T02:14:41.976Z,28.3200
2023-01-23T02:15:44.366Z,28.3030
2023-01-23T02:16:46.770Z,28.3250
2023-01-23T02:17:47.123Z,28.2920
2023-01-23T02:18:49.394Z,28.3050
2023-01-23T02:19:51.791Z,28.3140
2023-01-23T02:20:54.153Z,28.2830
2023-01-23T02:21:54.388Z,28.2830
2023-01-23T02:22:56.944Z,28.2670
2023-01-23T02:23:59.163Z,28.2800
2023-01-23T02:25:01.520Z,28.2920
2023-01-23T02:26:01.702Z,28.2870
2023-01-23T02:27:04.061Z,28.2750
2023-01-23T02:28:06.391Z,28.2800
2023-01-23T02:29:08.730Z,28.2530
2023-01-23T02:30:11.064Z,28.2440
2023-01-23T02:31:13.565Z,28.2280
2023-01-23T02:32:13.614Z,28.2210
2023-01-23T02:33:16.003Z,28.2170
2023-01-23T02:34:18.291Z,28.2420
2023-01-23T02:35:20.648Z,28.2980
2023-01-23T02:36:23.000Z,28.3390
2023-01-23T02:37:23.223Z,28.3140
2023-01-23T02:38:25.713Z,28.2780
2023-01-23T02:39:27.917Z,28.2640
2023-01-23T02:40:30.262Z,28.2530
2023-01-23T02:41:32.620Z,28.2220
2023-01-23T02:42:32.814Z,28.2090
2023-01-23T02:43:35.323Z,28.1920
2023-01-23T02:44:37.521Z,28.1820
2023-01-23T02:45:39.990Z,28.1710
2023-01-23T02:46:40.109Z,28.2000
2023-01-23T02:47:42.511Z,28.1950
2023-01-23T02:48:44.856Z,28.1880
2023-01-23T02:49:47.245Z,28.1950
2023-01-23T02:50:49.656Z,28.1710
2023-01-23T02:51:49.819Z,28.1770
2023-01-23T02:52:52.206Z,28.1650
2023-01-23T02:53:54.717Z,28.1710
2023-01-23T02:54:56.885Z,28.1600
2023-01-23T02:55:59.257Z,28.1480
2023-01-23T02:57:01.510Z,28.1060
2023-01-23T02:58:03.859Z,28.0940
2023-01-23T02:59:06.273Z,28.1210
2023-01-23T03:00:08.634Z,28.1040
2023-01-23T03:01:08.930Z,28.1000
2023-01-23T03:02:11.360Z,28.0990
2023-01-23T03:03:13.668Z,28.1040
2023-01-23T03:04:16.107Z,28.0950
2023-01-23T03:05:16.328Z,28.2320
2023-01-23T03:06:18.733Z,28.2530
2023-01-23T03:07:21.053Z,28.2090
2023-01-23T03:08:23.406Z,28.2060
2023-01-23T03:09:23.727Z,28.1490
2023-01-23T03:10:25.885Z,28.1870
2023-01-23T03:11:28.182Z,28.1920
2023-01-23T03:12:30.501Z,28.1680
2023-01-23T03:13:32.841Z,28.1920
2023-01-23T03:14:35.150Z,28.1760
2023-01-23T03:15:37.402Z,28.1210
2023-01-23T03:16:38.581Z,28.1370
2023-01-23T03:17:39.789Z,28.1570
2023-01-23T03:18:53.451Z,28.1550
2023-01-23T03:19:44.476Z,28.2010
2023-01-23T03:20:46.768Z,28.2020
2023-01-23T03:21:46.934Z,28.1460
2023-01-23T03:22:49.258Z,28.1780
2023-01-23T03:23:51.556Z,28.2030
2023-01-23T03:24:54.046Z,28.1870
2023-01-23T03:25:56.290Z,28.1760
2023-01-23T03:26:58.705Z,28.1490
2023-01-23T03:27:58.965Z,28.2020
2023-01-23T03:29:01.387Z,28.1880
2023-01-23T03:30:03.907Z,28.1190
2023-01-23T03:31:06.293Z,28.0940
2023-01-23T03:32:08.613Z,28.0650
2023-01-23T03:33:11.041Z,28.0600
2023-01-23T03:34:13.451Z,28.0600
2023-01-23T03:35:13.754Z,28.0860
2023-01-23T03:36:16.137Z,28.0490
2023-01-23T03:37:18.551Z,28.0650
2023-01-23T03:38:18.761Z,28.0550
2023-01-23T03:39:21.152Z,28.1170
2023-01-23T03:40:23.727Z,28.0900
2023-01-23T03:41:25.983Z,28.0910
2023-01-23T03:42:28.417Z,28.1060
2023-01-23T03:43:28.648Z,28.1100
2023-01-23T03:44:30.989Z,28.0630
2023-01-23T03:45:33.511Z,28.0450
2023-01-23T03:46:35.809Z,28.0240
2023-01-23T03:47:36.061Z,27.9930
2023-01-23T03:48:38.432Z,27.9610
2023-01-23T03:49:40.844Z,28.0250
2023-01-23T03:50:43.274Z,28.0710
2023-01-23T03:51:43.496Z,28.0440
2023-01-23T03:52:45.883Z,28.0390
2023-01-23T03:53:48.289Z,28.0240
2023-01-23T03:54:50.667Z,27.9930
2023-01-23T03:55:51.137Z,27.9780
2023-01-23T03:56:53.269Z,27.9610
2023-01-23T03:57:55.671Z,27.9830
2023-01-23T03:58:58.034Z,27.9680
2023-01-23T03:59:58.286Z,27.9480
2023-01-23T04:01:00.872Z,27.9220
2023-01-23T04:02:03.083Z,27.9060
2023-01-23T04:03:05.594Z,27.9180
2023-01-23T04:04:05.722Z,27.9500
2023-01-23T04:05:08.134Z,27.9830
2023-01-23T04:06:10.612Z,27.9780
2023-01-23T04:07:12.854Z,27.9890
2023-01-23T04:09:19.775Z,27.9970
2023-01-23T04:10:22.400Z,27.9760
2023-01-23T04:11:24.464Z,27.9510
2023-01-23T04:12:24.445Z,27.9830
2023-01-23T04:13:26.808Z,27.9330
2023-01-23T04:14:07.179Z,27.9880
2023-01-23T04:15:10.077Z,28.0350
2023-01-23T04:16:10.339Z,27.9760
2023-01-23T04:17:12.670Z,27.9370
2023-01-23T04:18:14.952Z,27.9230
2023-01-23T04:19:17.297Z,27.9160
2023-01-23T04:20:19.903Z,27.9010
2023-01-23T04:21:19.875Z,27.9820
2023-01-23T04:22:22.253Z,27.9890
2023-01-23T04:23:24.591Z,28.0270
2023-01-23T04:24:26.935Z,28.0500
2023-01-23T04:25:29.316Z,28.0100
2023-01-23T04:26:29.597Z,27.9820
2023-01-23T04:27:31.864Z,27.9410
2023-01-23T04:28:34.180Z,27.9080
2023-01-23T04:29:36.534Z,27.9460
2023-01-23T04:30:38.953Z,27.9250
2023-01-23T04:31:41.321Z,27.9080
2023-01-23T04:32:41.316Z,27.8920
2023-01-23T04:33:43.590Z,27.8860
2023-01-23T04:34:45.962Z,27.9120
2023-01-23T04:35:48.347Z,27.9180
2023-01-23T04:36:50.757Z,27.8960
2023-01-23T04:37:51.047Z,27.8850
2023-01-23T04:38:53.417Z,27.8500
2023-01-23T04:39:55.759Z,27.8310
2023-01-23T04:40:58.108Z,27.8360
2023-01-23T04:41:58.467Z,27.8250
2023-01-23T04:43:00.861Z,27.8530
2023-01-23T04:44:03.120Z,27.8550
2023-01-23T04:45:05.533Z,27.8730
2023-01-23T04:46:05.839Z,27.8550
2023-01-23T04:47:08.096Z,27.8070
2023-01-23T04:48:10.481Z,27.7900
2023-01-23T04:49:12.839Z,27.7740
2023-01-23T04:50:15.273Z,27.8600
2023-01-23T04:51:17.819Z,27.8960
2023-01-23T04:52:20.034Z,27.8840
2023-01-23T04:53:22.416Z,27.8710
2023-01-23T04:54:22.646Z,27.8320
2023-01-23T04:55:25.056Z,27.8050
2023-01-23T04:56:27.455Z,27.7740
2023-01-23T04:57:29.989Z,27.7520
2023-01-23T04:58:30.151Z,27.7520
2023-01-23T04:59:32.555Z,27.8550
2023-01-23T05:00:34.933Z,27.8640
2023-01-23T05:01:37.424Z,27.9000
2023-01-23T05:02:37.675Z,27.7930
2023-01-23T05:03:39.991Z,27.7840
2023-01-23T05:04:42.298Z,27.7850
2023-01-23T05:05:44.671Z,27.8250
2023-01-23T05:06:44.893Z,27.8720
2023-01-23T05:07:47.253Z,27.8390
2023-01-23T05:08:52.321Z,27.8720
2023-01-23T05:09:51.945Z,27.9400
2023-01-23T05:10:54.313Z,27.8520
2023-01-23T05:11:54.549Z,27.5060
2023-01-23T05:12:57.044Z,27.7650
2023-01-23T05:13:59.390Z,27.7660
2023-01-23T05:15:01.730Z,27.6780
2023-01-23T05:16:02.053Z,27.7120
2023-01-23T05:17:04.381Z,27.7130
2023-01-23T05:18:06.813Z,27.6770
2023-01-23T05:18:56.937Z,27.6910
2023-01-23T05:19:58.636Z,27.6730
2023-01-23T05:21:00.842Z,27.6420
2023-01-23T05:22:03.134Z,27.6520
2023-01-23T05:23:05.394Z,27.6830
2023-01-23T05:24:05.560Z,27.6340
2023-01-23T05:25:07.891Z,27.6180
2023-01-23T05:26:10.173Z,27.6240
2023-01-23T05:27:12.564Z,27.6070
2023-01-23T05:28:15.043Z,27.6240
2023-01-23T05:29:15.139Z,27.5970
2023-01-23T05:30:17.746Z,27.6220
2023-01-23T05:31:20.033Z,27.6180
2023-01-23T05:32:22.226Z,27.6770
2023-01-23T05:33:24.625Z,27.7680
2023-01-23T05:34:24.794Z,27.8060
2023-01-23T05:35:27.257Z,27.8230
2023-01-23T05:36:29.498Z,27.8000
2023-01-23T05:37:31.815Z,27.8390
2023-01-23T05:38:34.114Z,27.9160
2023-01-23T05:39:36.481Z,28.0240
2023-01-23T05:41:40.333Z,28.2180
2023-01-23T05:42:42.520Z,28.3200
2023-01-23T05:43:45.008Z,28.4360
2023-01-23T05:44:47.269Z,28.4980
2023-01-23T05:45:49.741Z,28.6120
2023-01-23T05:46:49.912Z,28.6460
2023-01-23T05:47:52.176Z,28.7170
2023-01-23T05:48:54.574Z,28.7810
2023-01-23T05:49:56.967Z,28.7900
2023-01-23T05:50:57.288Z,28.8060
2023-01-23T05:51:59.664Z,28.8530
2023-01-23T05:53:02.021Z,28.8920
2023-01-23T05:54:04.388Z,28.9180
2023-01-23T05:55:04.624Z,28.9630
2023-01-23T05:56:06.998Z,28.9900
2023-01-23T05:57:09.415Z,29.0400
2023-01-23T05:58:12.552Z,29.1180
2023-01-23T05:59:14.265Z,29.1480
2023-01-23T06:00:14.407Z,29.1530
2023-01-23T06:01:16.786Z,29.1950
2023-01-23T06:02:19.190Z,29.2310
2023-01-23T06:03:21.488Z,29.2500
2023-01-23T06:04:21.634Z,29.2890
2023-01-23T06:05:24.010Z,29.3280
2023-01-23T06:06:26.384Z,29.3540
2023-01-23T06:07:28.786Z,29.3700
2023-01-23T06:08:31.136Z,29.4100
2023-01-23T06:09:31.366Z,29.4110
2023-01-23T06:10:33.742Z,29.4400
2023-01-23T06:11:36.115Z,29.4670
2023-01-23T06:12:38.541Z,29.5070
2023-01-23T06:13:38.709Z,29.5340
2023-01-23T06:14:41.173Z,29.4990
2023-01-23T06:15:43.408Z,29.5330
2023-01-23T06:16:45.695Z,29.5900
2023-01-23T06:17:48.214Z,29.6350
2023-01-23T06:18:48.145Z,29.6660
2023-01-23T06:19:50.436Z,29.6770
2023-01-23T06:20:52.795Z,29.6790
2023-01-23T06:21:55.174Z,29.7240
2023-01-23T06:22:57.568Z,29.7550
2023-01-23T06:23:57.757Z,29.8020
2023-01-23T06:25:00.142Z,29.7860
2023-01-23T06:26:02.511Z,29.8180
2023-01-23T06:27:04.868Z,29.8240
2023-01-23T06:28:07.286Z,29.8420
2023-01-23T06:29:07.477Z,29.8160
2023-01-23T06:30:09.968Z,29.7980
2023-01-23T06:31:12.298Z,29.7810
2023-01-23T06:32:14.492Z,29.7650
2023-01-23T06:33:14.705Z,29.7700
2023-01-23T06:34:17.016Z,29.7610
2023-01-23T06:35:19.645Z,29.7160
2023-01-23T06:36:21.657Z,29.7490
2023-01-23T06:37:23.973Z,29.7460
2023-01-23T06:38:26.340Z,29.7690
2023-01-23T06:39:26.487Z,29.7560
2023-01-23T06:40:28.815Z,29.7670
2023-01-23T06:41:31.119Z,29.7610
2023-01-23T06:42:33.473Z,29.7650
2023-01-23T06:43:35.783Z,29.7800
2023-01-23T06:44:38.089Z,29.8180
2023-01-23T06:45:38.376Z,29.8090
2023-01-23T06:46:40.642Z,29.8360
2023-01-23T06:47:42.882Z,29.8680
2023-01-23T06:48:45.215Z,29.8800
2023-01-23T06:49:47.477Z,29.8890
2023-01-23T06:50:49.870Z,29.8850
2023-01-23T06:51:49.953Z,29.7830
2023-01-23T06:52:52.235Z,29.7830
2023-01-23T06:53:54.672Z,29.7610
2023-01-23T06:54:56.801Z,29.7620
2023-01-23T06:55:59.098Z,29.7660
2023-01-23T06:57:01.404Z,29.7850
2023-01-23T06:58:01.567Z,29.7910
2023-01-23T06:59:04.035Z,29.8020
2023-01-23T07:00:06.260Z,29.7800
2023-01-23T07:01:08.639Z,29.7770
2023-01-23T07:02:59.465Z,29.8050
2023-01-23T07:04:00.682Z,29.8030
2023-01-23T07:05:03.121Z,29.7550
2023-01-23T07:06:05.342Z,29.7330
2023-01-23T07:07:05.553Z,29.7330
2023-01-23T07:08:07.879Z,29.6800
2023-01-23T07:09:10.191Z,29.6410
2023-01-23T07:10:12.517Z,29.6130
2023-01-23T07:11:14.786Z,29.5600
2023-01-23T07:12:14.979Z,29.5200
2023-01-23T07:13:17.280Z,29.5030
2023-01-23T07:14:19.612Z,29.5130
2023-01-23T07:15:21.932Z,29.4580
2023-01-23T07:16:24.325Z,29.4200
2023-01-23T07:17:26.490Z,29.3920
2023-01-23T07:18:28.797Z,29.3810
2023-01-23T07:19:28.933Z,29.3550
2023-01-23T07:20:31.278Z,29.3190
2023-01-23T07:21:32.403Z,29.3180
2023-01-23T07:22:34.699Z,29.4170
2023-01-23T07:23:35.979Z,29.4160
2023-01-23T07:24:38.296Z,29.3520
2023-01-23T07:25:40.612Z,29.2920
2023-01-23T07:26:42.885Z,29.3020
2023-01-23T07:27:45.160Z,29.2730
2023-01-23T07:28:47.403Z,29.2530
2023-01-23T07:29:49.672Z,29.2360
2023-01-23T07:30:52.282Z,29.2120
2023-01-23T07:31:54.313Z,29.1750
2023-01-23T07:32:56.301Z,29.2060
2023-01-23T07:33:58.505Z,29.2180
2023-01-23T07:35:00.765Z,29.1950
2023-01-23T07:36:03.021Z,29.1790
2023-01-23T07:37:05.214Z,29.1340
2023-01-23T07:38:05.302Z,29.1550
2023-01-23T07:39:07.587Z,29.1530
2023-01-23T07:40:09.891Z,29.1230
2023-01-23T07:41:12.260Z,29.1080
2023-01-23T07:42:14.560Z,29.0920
2023-01-23T07:43:16.851Z,29.0780
2023-01-23T07:44:17.021Z,29.0560
2023-01-23T07:45:19.351Z,29.0880
2023-01-23T07:46:21.723Z,29.1040
2023-01-23T07:47:24.029Z,29.0960
2023-01-23T07:48:26.215Z,29.0180
2023-01-23T07:49:28.578Z,29.0010
2023-01-23T07:50:28.774Z,28.9790
2023-01-23T07:51:31.137Z,28.9750
2023-01-23T07:52:33.471Z,28.9730
2023-01-23T07:53:35.833Z,28.9420
2023-01-23T07:54:38.179Z,28.8970
2023-01-23T07:55:38.376Z,28.8610
2023-01-23T07:56:40.854Z,28.8370
2023-01-23T07:57:43.147Z,28.8160
2023-01-23T07:58:45.475Z,28.7850
2023-01-23T07:59:47.847Z,28.7600
2023-01-23T08:00:48.065Z,28.7380
2023-01-23T08:01:50.483Z,28.7020
2023-01-23T08:02:52.911Z,28.6680
2023-01-23T08:03:55.183Z,28.6410
2023-01-23T08:04:55.329Z,28.6520
2023-01-23T08:05:57.679Z,28.6360
2023-01-23T08:07:00.056Z,28.6200
2023-01-23T08:08:13.432Z,28.6300
2023-01-23T08:09:02.571Z,28.6540
2023-01-23T08:10:04.955Z,28.6300
2023-01-23T08:11:07.289Z,28.6360
2023-01-23T08:12:09.666Z,28.6140
2023-01-23T08:13:12.004Z,28.6070
2023-01-23T08:14:12.181Z,28.6070
2023-01-23T08:15:14.534Z,28.5750
2023-01-23T08:16:16.964Z,28.5800
2023-01-23T08:17:19.321Z,28.5360
2023-01-23T08:18:19.640Z,28.5150
2023-01-23T08:19:21.877Z,28.4930
2023-01-23T08:20:24.246Z,28.5040
2023-01-23T08:21:26.577Z,28.5040
2023-01-23T08:22:28.949Z,28.4810
2023-01-23T08:23:29.091Z,28.4810
2023-01-23T08:24:31.483Z,28.4720
2023-01-23T08:25:33.804Z,28.4530
2023-01-23T08:26:36.121Z,28.4430
2023-01-23T08:27:38.410Z,28.4530
2023-01-23T08:28:40.719Z,28.4260
2023-01-23T08:29:40.895Z,28.4370
2023-01-23T08:30:43.239Z,28.4150
2023-01-23T08:31:45.536Z,28.4000
2023-01-23T08:32:47.832Z,28.3810
2023-01-23T08:33:50.236Z,28.3920
2023-01-23T08:34:52.451Z,28.4260
2023-01-23T08:35:52.591Z,28.3810
2023-01-23T08:36:54.884Z,28.3650
2023-01-23T08:37:57.223Z,28.3760
2023-01-23T08:38:59.520Z,28.3810
2023-01-23T08:40:01.843Z,28.3760
2023-01-23T08:41:04.120Z,28.3700
2023-01-23T08:42:04.307Z,28.3810
2023-01-23T08:43:06.668Z,28.3860
2023-01-23T08:45:09.250Z,28.4530
2023-01-23T08:46:11.551Z,28.4620
2023-01-23T08:47:13.779Z,28.4490
2023-01-23T08:48:16.120Z,28.4220
2023-01-23T08:49:18.536Z,28.4150
2023-01-23T08:50:21.022Z,28.3920
2023-01-23T08:51:21.019Z,28.3920
2023-01-23T08:52:23.216Z,28.3860
2023-01-23T08:53:25.627Z,28.3760
2023-01-23T08:54:27.931Z,28.3920
2023-01-23T08:55:30.284Z,28.3760
2023-01-23T08:56:30.490Z,28.4000
2023-01-23T08:57:32.868Z,28.3770
2023-01-23T08:58:35.217Z,28.3610
2023-01-23T08:59:37.500Z,28.3760
2023-01-23T09:00:39.831Z,28.3490
2023-01-23T09:01:42.081Z,28.3450
2023-01-23T09:02:42.172Z,28.3230
2023-01-23T09:03:44.448Z,28.3060
2023-01-23T09:04:46.795Z,28.3110
2023-01-23T09:05:48.922Z,28.2950
2023-01-23T09:06:51.195Z,28.3170
2023-01-23T09:07:53.492Z,28.2900
2023-01-23T09:08:55.800Z,28.2860
2023-01-23T09:09:58.055Z,28.2640
2023-01-23T09:10:58.157Z,28.2590
2023-01-23T09:12:00.432Z,28.2370
2023-01-23T09:13:02.756Z,28.2370
2023-01-23T09:14:05.080Z,28.2030
2023-01-23T09:15:07.351Z,28.1980
2023-01-23T09:16:09.791Z,28.2030
2023-01-23T09:17:12.067Z,28.1710
2023-01-23T09:18:12.274Z,28.1870
2023-01-23T09:19:14.671Z,28.1640
2023-01-23T09:20:17.120Z,28.1810
2023-01-23T09:21:19.400Z,28.1580
2023-01-23T09:22:19.562Z,28.1790
2023-01-23T09:23:21.917Z,28.1680
2023-01-23T09:24:24.329Z,28.1870
2023-01-23T09:25:26.658Z,28.1530
2023-01-23T09:26:26.908Z,28.1460
2023-01-23T09:27:29.254Z,28.1680
2023-01-23T09:28:31.623Z,28.1500
2023-01-23T09:29:33.989Z,28.1770
2023-01-23T09:30:36.380Z,28.1880
2023-01-23T09:31:36.721Z,28.1770
2023-01-23T09:32:38.969Z,28.1940
2023-01-23T09:33:41.413Z,28.1960
2023-01-23T09:34:43.817Z,28.1720
2023-01-23T09:35:44.160Z,28.1830
2023-01-23T09:36:46.462Z,28.2100
2023-01-23T09:37:48.844Z,28.1990
2023-01-23T09:38:51.265Z,28.2100
2023-01-23T09:39:51.572Z,28.1270
2023-01-23T09:40:53.921Z,28.2060
2023-01-23T09:41:56.332Z,28.2230
2023-01-23T09:42:58.756Z,28.2170
2023-01-23T09:43:58.971Z,28.2380
2023-01-23T09:45:01.485Z,28.2380
2023-01-23T09:46:03.864Z,28.2550
2023-01-23T09:47:06.205Z,28.2500
2023-01-23T09:48:06.461Z,28.2130
2023-01-23T09:49:01.925Z,28.2480
2023-01-23T09:50:02.723Z,28.2650
2023-01-23T09:51:05.220Z,28.2450
2023-01-23T09:52:07.289Z,28.2340
2023-01-23T09:53:07.488Z,28.2180
2023-01-23T09:54:09.787Z,28.2190
2023-01-23T09:55:12.162Z,28.2030
2023-01-23T09:56:14.476Z,28.1980
2023-01-23T09:57:16.811Z,28.2030
2023-01-23T09:58:17.001Z,28.2170
2023-01-23T09:59:19.310Z,28.1720
2023-01-23T10:00:22.152Z,28.1580
2023-01-23T10:01:24.004Z,28.1560
2023-01-23T10:02:27.263Z,28.1530
2023-01-23T10:03:28.651Z,28.1690
2023-01-23T10:04:28.857Z,28.1760
2023-01-23T10:05:31.358Z,28.2030
2023-01-23T10:06:32.607Z,28.2250
2023-01-23T10:07:34.838Z,28.3760
2023-01-23T10:08:37.203Z,28.4720
2023-01-23T10:09:37.410Z,28.5340
2023-01-23T10:10:39.801Z,28.5700
2023-01-23T10:11:42.138Z,28.6060
2023-01-23T10:12:44.460Z,28.6230
2023-01-23T10:13:46.763Z,28.6400
2023-01-23T10:14:49.111Z,28.7550
2023-01-23T10:15:49.456Z,28.8140
2023-01-23T10:16:51.762Z,28.8200
2023-01-23T10:17:54.027Z,28.8400
2023-01-23T10:19:39.449Z,28.7350
2023-01-23T10:20:41.684Z,28.6050
2023-01-23T10:21:44.285Z,28.5420
2023-01-23T10:22:46.341Z,28.4980
2023-01-23T10:23:46.526Z,28.4590
2023-01-23T10:24:48.873Z,28.4280
2023-01-23T10:25:51.196Z,28.4380
2023-01-23T10:26:53.563Z,28.4170
2023-01-23T10:27:55.836Z,28.4210
2023-01-23T10:28:58.164Z,28.4470
2023-01-23T10:29:58.346Z,28.5430
2023-01-23T10:31:00.786Z,28.6410
2023-01-23T10:32:03.044Z,28.7130
2023-01-23T10:33:05.368Z,28.6630
2023-01-23T10:34:07.739Z,28.6470
2023-01-23T10:35:07.939Z,28.6480
2023-01-23T10:36:10.989Z,28.6580
2023-01-23T10:37:12.797Z,28.7020
2023-01-23T10:38:15.059Z,28.7320
2023-01-23T10:39:17.358Z,28.6970
2023-01-23T10:40:17.517Z,28.6540
2023-01-23T10:41:23.480Z,28.6150
2023-01-23T10:41:54.375Z,28.6100
2023-01-23T10:42:52.347Z,28.6090
2023-01-23T10:43:52.526Z,28.6150
2023-01-23T10:44:55.000Z,28.5920
2023-01-23T10:45:57.315Z,28.5590
2023-01-23T10:46:59.625Z,28.5650
2023-01-23T10:48:06.295Z,28.5660
2023-01-23T10:49:02.162Z,28.5770
2023-01-23T10:50:04.488Z,28.5280
2023-01-23T10:51:06.881Z,28.5230
2023-01-23T10:52:09.168Z,28.5160
2023-01-23T10:53:11.702Z,28.5360
2023-01-23T10:54:16.922Z,28.5200
2023-01-23T10:55:13.982Z,28.5600
2023-01-23T10:56:16.395Z,28.5480
2023-01-23T10:57:18.685Z,28.5440
2023-01-23T10:58:21.107Z,28.5100
2023-01-23T10:59:21.280Z,28.4850
2023-01-23T11:00:23.655Z,28.4560
2023-01-23T11:01:26.105Z,28.4670
2023-01-23T11:02:28.595Z,28.5090
2023-01-23T11:03:30.830Z,28.5330
2023-01-23T11:04:30.989Z,28.5760
2023-01-23T11:05:37.580Z,28.5970
2023-01-23T11:06:35.670Z,28.6140
2023-01-23T11:07:38.006Z,28.5940
2023-01-23T11:08:40.667Z,28.5490
2023-01-23T11:09:40.571Z,28.5490
2023-01-23T11:10:42.957Z,28.5710
2023-01-23T11:11:45.356Z,28.5480
2023-01-23T11:12:47.760Z,28.5360
2023-01-23T11:13:48.052Z,28.5310
2023-01-23T11:14:50.384Z,28.4980
2023-01-23T11:15:52.759Z,28.5150
2023-01-23T11:16:55.122Z,28.5040
2023-01-23T11:17:57.397Z,28.5090
2023-01-23T11:18:59.803Z,28.4930
2023-01-23T11:20:02.122Z,28.4830
2023-01-23T11:21:04.443Z,28.4830
2023-01-23T11:22:06.762Z,28.5040
2023-01-23T11:23:06.984Z,28.4930
2023-01-23T11:24:09.516Z,28.4820
2023-01-23T11:25:11.568Z,28.4650
2023-01-23T11:26:13.904Z,28.4430
2023-01-23T11:27:16.180Z,28.4370
2023-01-23T11:28:18.491Z,28.4430
2023-01-23T11:29:18.813Z,28.4270
2023-01-23T11:30:20.993Z,28.4370
2023-01-23T11:31:23.335Z,28.4370
2023-01-23T11:32:25.704Z,28.4320
2023-01-23T11:33:27.926Z,28.4090
2023-01-23T11:34:30.288Z,28.4430
2023-01-23T11:35:30.444Z,28.4090
2023-01-23T11:36:32.766Z,28.4000
2023-01-23T11:37:35.087Z,28.4040
2023-01-23T11:38:37.703Z,28.3820
2023-01-23T11:39:39.969Z,28.4090
2023-01-23T11:40:01.237Z,28.4090
2023-01-23T11:41:03.531Z,28.3820
2023-01-23T11:42:05.822Z,28.3760
2023-01-23T11:43:08.117Z,28.3760
2023-01-23T11:44:13.038Z,28.3670
2023-01-23T11:45:12.828Z,28.3870
2023-01-23T11:46:13.040Z,28.3880
2023-01-23T11:47:15.317Z,28.3820
2023-01-23T11:48:17.702Z,28.3870
2023-01-23T11:49:20.069Z,28.3650
2023-01-23T11:50:22.511Z,28.3550
2023-01-23T11:51:22.776Z,28.3650
2023-01-23T11:52:24.983Z,28.3880
2023-01-23T11:53:36.736Z,28.3370
2023-01-23T11:54:29.773Z,28.3660
2023-01-23T11:55:30.195Z,28.3500
2023-01-23T11:56:32.379Z,28.3550
2023-01-23T11:57:34.703Z,28.3550
2023-01-23T11:58:49.091Z,28.3590
2023-01-23T11:59:37.303Z,28.3700
2023-01-23T12:00:39.735Z,28.3590
2023-01-23T12:01:45.277Z,28.3760
2023-01-23T12:02:44.592Z,28.3700
2023-01-23T12:03:44.781Z,28.3720
2023-01-23T12:04:47.081Z,28.3280
2023-01-23T12:05:49.509Z,28.3390
2023-01-23T12:06:51.933Z,28.3220
2023-01-23T12:07:54.237Z,28.3340
2023-01-23T12:08:54.473Z,28.3310
2023-01-23T12:09:56.905Z,28.3340
2023-01-23T12:10:59.472Z,28.3100
2023-01-23T12:11:59.586Z,28.3050
2023-01-23T12:13:01.995Z,28.3100
2023-01-23T12:14:04.377Z,28.3110
2023-01-23T12:15:06.722Z,28.3440
2023-01-23T12:16:09.217Z,28.3500
2023-01-23T12:17:09.350Z,28.3390
2023-01-23T12:18:11.784Z,28.3650
2023-01-23T12:19:14.159Z,28.3760
2023-01-23T12:20:14.416Z,28.4080
2023-01-23T12:21:16.881Z,28.4150
2023-01-23T12:22:19.231Z,28.4150
2023-01-23T12:23:21.574Z,28.4260
2023-01-23T12:24:21.766Z,28.4330
2023-01-23T12:25:24.078Z,28.4580
2023-01-23T12:26:26.592Z,28.4750
2023-01-23T12:27:28.765Z,28.4920
2023-01-23T12:28:31.121Z,28.4980
2023-01-23T12:29:31.319Z,28.4750
2023-01-23T12:30:33.648Z,28.4810
2023-01-23T12:31:36.086Z,28.4770
2023-01-23T12:32:38.329Z,28.4770